createdAt,value
2018-10-21T00:01:21.306Z,55.96
2018-10-21T00:03:48.920Z,55.84
2018-10-21T00:06:16.593Z,56.27
2018-10-21T00:08:44.363Z,56.13
2018-10-21T00:11:12.089Z,56.57
2018-10-21T00:13:39.877Z,56.02
2018-10-21T00:16:07.596Z,56.06
2018-10-21T00:18:35.273Z,55.84
2018-10-21T00:21:03.066Z,56.88
2018-10-21T00:23:30.673Z,57.21
2018-10-21T00:25:58.415Z,56.65
2018-10-21T00:28:26.117Z,57.15
2018-10-21T00:30:53.807Z,56.89
2018-10-21T00:33:21.524Z,57.06
2018-10-21T00:35:49.179Z,56.72
2018-10-21T00:38:16.797Z,56.45
2018-10-21T00:40:44.454Z,56.07
2018-10-21T00:43:12.113Z,56.06
2018-10-21T00:45:39.753Z,56.61
2018-10-21T00:48:07.451Z,56.71
2018-10-21T00:50:35.106Z,56.37
2018-10-21T00:53:02.798Z,56.67
2018-10-21T00:55:30.497Z,56.72
2018-10-21T00:57:58.122Z,56.61
2018-10-21T01:00:25.762Z,56.78
2018-10-21T01:02:53.574Z,56.97
2018-10-21T01:05:21.199Z,56.30
2018-10-21T01:07:48.886Z,56.68
2018-10-21T01:10:16.550Z,57.52
2018-10-21T01:12:44.316Z,57.68
2018-10-21T01:15:12.631Z,57.68
2018-10-21T01:17:40.271Z,58.05
2018-10-21T01:20:10.351Z,58.18
2018-10-21T01:22:38.239Z,58.69
2018-10-21T01:25:06.486Z,58.67
2018-10-21T01:27:34.206Z,58.38
2018-10-21T01:30:02.081Z,58.25
2018-10-21T01:32:29.784Z,58.47
2018-10-21T01:34:57.434Z,58.26
2018-10-21T01:37:25.183Z,57.45
2018-10-21T01:40:58.407Z,58.37
2018-10-21T01:43:29.020Z,59.26
2018-10-21T01:45:57.074Z,59.21
2018-10-21T01:48:25.929Z,58.76
2018-10-21T01:50:53.558Z,58.36
2018-10-21T01:53:21.722Z,57.99
2018-10-21T01:55:49.333Z,57.94
2018-10-21T01:58:17.005Z,58.24
2018-10-21T02:00:44.895Z,59.13
2018-10-21T02:03:12.731Z,58.91
2018-10-21T02:05:41.258Z,58.65
2018-10-21T02:08:08.932Z,58.50
2018-10-21T02:10:36.582Z,59.30
2018-10-21T02:13:04.339Z,58.70
2018-10-21T02:15:32.007Z,59.34
2018-10-21T02:17:59.683Z,59.90
2018-10-21T02:20:27.568Z,59.76
2018-10-21T02:22:55.225Z,58.74
2018-10-21T02:25:22.956Z,59.37
2018-10-21T02:27:51.342Z,59.81
2018-10-21T02:30:21.190Z,59.76
2018-10-21T02:32:49.672Z,59.27
2018-10-21T02:35:17.915Z,60.98
2018-10-21T02:37:45.918Z,61.28
2018-10-21T02:41:39.890Z,61.61
2018-10-21T02:44:11.977Z,61.72
2018-10-21T02:46:40.238Z,62.19
2018-10-21T02:49:08.911Z,61.58
2018-10-21T02:51:36.501Z,62.18
2018-10-21T02:54:04.977Z,62.04
2018-10-21T02:56:32.726Z,62.72
2018-10-21T02:59:00.477Z,62.62
2018-10-21T03:01:28.136Z,62.25
2018-10-21T03:03:55.761Z,62.84
2018-10-21T03:06:23.465Z,63.98
2018-10-21T03:08:51.177Z,64.62
2018-10-21T03:11:18.869Z,64.53
2018-10-21T03:13:46.933Z,64.58
2018-10-21T03:16:14.647Z,64.42
2018-10-21T03:18:42.389Z,64.74
2018-10-21T03:21:10.168Z,64.53
2018-10-21T03:23:37.919Z,64.37
2018-10-21T03:26:05.585Z,64.55
2018-10-21T03:28:33.717Z,64.33
2018-10-21T03:31:01.528Z,63.38
2018-10-21T03:33:35.963Z,62.89
2018-10-21T03:36:03.607Z,63.01
2018-10-21T03:38:31.298Z,63.24
2018-10-21T03:40:58.922Z,63.26
2018-10-21T03:43:26.545Z,63.37
2018-10-21T03:45:54.343Z,62.85
2018-10-21T03:48:21.919Z,62.44
2018-10-21T03:50:49.583Z,63.22
2018-10-21T03:53:17.270Z,63.54
2018-10-21T03:55:44.927Z,63.29
2018-10-21T03:58:12.948Z,62.83
2018-10-21T04:00:40.589Z,62.87
2018-10-21T04:03:08.601Z,63.60
2018-10-21T04:05:36.561Z,63.74
2018-10-21T04:08:04.335Z,64.30
2018-10-21T04:10:32.312Z,63.96
2018-10-21T04:13:00.193Z,63.67
2018-10-21T04:15:27.903Z,64.28
2018-10-21T04:17:55.796Z,64.90
2018-10-21T04:20:23.574Z,64.23
2018-10-21T04:22:56.257Z,64.00
2018-10-21T04:25:24.965Z,64.50
2018-10-21T04:27:53.638Z,64.47
2018-10-21T04:30:25.846Z,64.05
2018-10-21T04:32:59.139Z,63.46
2018-10-21T04:35:27.042Z,63.76
2018-10-21T04:40:17.740Z,64.08
2018-10-21T04:42:45.962Z,64.13
2018-10-21T04:45:15.922Z,64.00
2018-10-21T04:47:43.560Z,63.73
2018-10-21T04:50:11.752Z,63.17
2018-10-21T04:52:39.473Z,63.00
2018-10-21T04:55:10.411Z,62.93
2018-10-21T04:57:40.119Z,62.92
2018-10-21T05:00:13.966Z,62.47
2018-10-21T05:02:41.709Z,61.80
2018-10-21T05:05:10.572Z,62.19
2018-10-21T05:07:38.668Z,62.51
2018-10-21T05:10:31.984Z,62.18
2018-10-21T05:12:59.709Z,62.80
2018-10-21T05:15:28.625Z,62.54
2018-10-21T05:17:56.463Z,63.30
2018-10-21T05:20:24.253Z,63.42
2018-10-21T05:22:51.939Z,63.62
2018-10-21T05:25:19.629Z,63.32
2018-10-21T05:27:47.291Z,63.90
2018-10-21T05:32:49.118Z,63.98
2018-10-21T05:35:17.730Z,64.85
2018-10-21T05:37:45.432Z,65.91
2018-10-21T05:40:15.953Z,66.16
2018-10-21T05:42:44.029Z,65.96
2018-10-21T05:45:11.747Z,66.35
2018-10-21T05:47:39.736Z,66.50
2018-10-21T05:50:08.992Z,65.77
2018-10-21T05:52:37.029Z,66.09
2018-10-21T05:55:05.313Z,66.34
2018-10-21T05:57:33.031Z,65.61
2018-10-21T06:00:00.640Z,65.75
2018-10-21T06:02:28.353Z,64.22
2018-10-21T06:04:55.991Z,65.40
2018-10-21T06:07:23.828Z,65.43
2018-10-21T06:09:51.963Z,65.36
2018-10-21T06:12:19.596Z,65.90
2018-10-21T06:14:48.480Z,67.03
2018-10-21T06:17:21.369Z,66.33
2018-10-21T06:19:54.972Z,65.66
2018-10-21T06:22:22.627Z,66.26
2018-10-21T06:24:50.239Z,65.51
2018-10-21T06:27:17.994Z,65.10
2018-10-21T06:29:45.615Z,64.45
2018-10-21T06:32:13.287Z,64.33
2018-10-21T06:34:40.952Z,64.15
2018-10-21T06:37:08.554Z,62.79
2018-10-21T06:39:36.196Z,64.13
2018-10-21T06:42:04.049Z,63.98
2018-10-21T06:44:31.897Z,63.54
2018-10-21T06:46:59.508Z,64.05
2018-10-21T06:49:27.122Z,65.33
2018-10-21T06:51:54.792Z,63.84
2018-10-21T06:54:22.414Z,63.60
2018-10-21T06:56:50.340Z,65.39
2018-10-21T06:59:17.995Z,65.19
2018-10-21T07:01:45.730Z,63.91
2018-10-21T07:04:13.474Z,63.36
2018-10-21T07:06:41.206Z,62.28
2018-10-21T07:09:08.827Z,62.42
2018-10-21T07:11:36.695Z,62.71
2018-10-21T07:14:04.369Z,63.47
2018-10-21T07:16:32.170Z,63.46
2018-10-21T07:18:59.722Z,63.55
2018-10-21T07:21:27.377Z,62.95
2018-10-21T07:23:54.994Z,62.93
2018-10-21T07:26:22.671Z,64.69
2018-10-21T07:28:50.365Z,64.03
2018-10-21T07:31:18.011Z,63.06
2018-10-21T07:33:45.729Z,63.18
2018-10-21T07:36:13.478Z,63.38
2018-10-21T07:38:41.092Z,61.74
2018-10-21T07:41:08.819Z,61.51
2018-10-21T07:43:36.505Z,61.27
2018-10-21T07:46:04.328Z,60.65
2018-10-21T07:48:32.025Z,61.58
2018-10-21T07:50:59.759Z,60.87
2018-10-21T07:53:27.411Z,61.51
2018-10-21T07:55:55.143Z,60.73
2018-10-21T07:58:22.860Z,60.46
2018-10-21T08:00:50.629Z,60.26
2018-10-21T08:03:18.332Z,61.27
2018-10-21T08:06:17.427Z,59.97
2018-10-21T08:08:45.149Z,59.65
2018-10-21T08:11:12.793Z,59.46
2018-10-21T08:13:40.379Z,59.50
2018-10-21T08:16:08.270Z,59.96
2018-10-21T08:21:03.248Z,60.26
2018-10-21T08:23:31.035Z,59.55
2018-10-21T08:25:58.704Z,59.00
2018-10-21T08:28:26.338Z,59.36
2018-10-21T08:30:54.514Z,57.83
2018-10-21T08:33:22.522Z,57.71
2018-10-21T08:35:50.543Z,57.58
2018-10-21T08:38:18.210Z,58.71
2018-10-21T08:40:46.035Z,57.74
2018-10-21T08:43:13.756Z,56.78
2018-10-21T08:45:41.528Z,56.89
2018-10-21T08:48:09.266Z,57.66
2018-10-21T08:50:36.934Z,57.28
2018-10-21T08:53:04.689Z,55.84
2018-10-21T08:55:32.467Z,55.45
2018-10-21T08:58:00.202Z,55.42
2018-10-21T09:00:27.843Z,54.04
2018-10-21T09:02:55.492Z,52.76
2018-10-21T09:05:23.284Z,52.38
2018-10-21T09:07:51.599Z,52.07
2018-10-21T09:10:19.550Z,52.58
2018-10-21T09:12:47.285Z,51.97
2018-10-21T09:15:17.341Z,51.44
2018-10-21T09:17:44.973Z,51.67
2018-10-21T09:20:15.667Z,50.38
2018-10-21T09:22:43.452Z,50.25
2018-10-21T09:25:12.980Z,50.44
2018-10-21T09:27:41.640Z,50.17
2018-10-21T09:30:11.534Z,49.29
2018-10-21T09:32:39.456Z,50.67
2018-10-21T09:35:09.667Z,50.78
2018-10-21T09:37:37.543Z,50.35
2018-10-21T09:40:07.472Z,49.10
2018-10-21T09:42:35.095Z,49.00
2018-10-21T09:45:02.839Z,48.33
2018-10-21T09:47:30.601Z,47.21
2018-10-21T09:49:58.385Z,47.54
2018-10-21T09:52:26.021Z,46.53
2018-10-21T09:54:53.855Z,47.55
2018-10-21T09:57:21.609Z,46.69
2018-10-21T09:59:49.405Z,45.97
2018-10-21T10:02:23.044Z,45.06
2018-10-21T10:04:50.817Z,45.58
2018-10-21T10:07:18.542Z,45.66
2018-10-21T10:09:46.311Z,45.15
2018-10-21T10:12:14.349Z,46.39
2018-10-21T10:14:42.121Z,48.02
2018-10-21T10:17:09.950Z,48.90
2018-10-21T10:19:37.953Z,48.31
2018-10-21T10:22:05.756Z,49.24
2018-10-21T10:24:33.511Z,48.29
2018-10-21T10:27:01.304Z,49.33
2018-10-21T10:29:29.041Z,49.22
2018-10-21T10:31:56.768Z,48.46
2018-10-21T10:34:24.489Z,48.65
2018-10-21T10:36:52.229Z,48.60
2018-10-21T10:39:20.032Z,47.56
2018-10-21T10:41:47.898Z,48.11
2018-10-21T10:44:15.562Z,48.72
2018-10-21T10:46:43.240Z,48.82
2018-10-21T10:49:10.933Z,48.01
2018-10-21T10:51:38.686Z,48.15
2018-10-21T10:54:06.385Z,47.67
2018-10-21T10:56:34.155Z,46.33
2018-10-21T10:59:01.865Z,44.98
2018-10-21T11:01:29.728Z,42.91
2018-10-21T11:03:57.660Z,39.23
2018-10-21T11:06:25.503Z,36.28
2018-10-21T11:08:53.133Z,33.30
2018-10-21T11:11:24.644Z,30.11
2018-10-21T11:13:52.358Z,28.63
2018-10-21T11:16:20.116Z,27.04
2018-10-21T11:18:47.876Z,25.91
2018-10-21T11:21:15.834Z,25.54
2018-10-21T11:23:43.656Z,24.44
2018-10-21T11:26:11.464Z,22.66
2018-10-21T11:28:39.284Z,22.69
2018-10-21T11:31:07.079Z,23.25
2018-10-21T11:33:34.745Z,26.36
2018-10-21T11:36:02.548Z,26.88
2018-10-21T11:38:30.299Z,28.71
2018-10-21T11:40:58.085Z,29.95
2018-10-21T11:43:25.923Z,33.36
2018-10-21T11:45:53.687Z,34.39
2018-10-21T11:48:21.368Z,35.77
2018-10-21T11:50:49.078Z,35.01
2018-10-21T11:53:16.817Z,35.18
2018-10-21T11:55:45.068Z,34.54
2018-10-21T11:58:14.219Z,35.19
2018-10-21T12:00:42.970Z,35.30
2018-10-21T12:03:11.297Z,34.65
2018-10-21T12:05:40.192Z,34.77
2018-10-21T12:08:08.219Z,34.09
2018-10-21T12:10:36.062Z,34.17
2018-10-21T12:13:04.464Z,33.46
2018-10-21T12:15:32.382Z,28.70
2018-10-21T12:18:00.083Z,21.87
2018-10-21T12:20:27.786Z,17.58
2018-10-21T12:22:55.702Z,15.73
2018-10-21T12:25:23.447Z,14.65
2018-10-21T12:27:51.127Z,14.79
2018-10-21T12:30:18.932Z,14.03
2018-10-21T12:32:46.574Z,13.36
2018-10-21T12:35:14.361Z,12.17
2018-10-21T12:37:42.047Z,11.47
2018-10-21T12:40:10.210Z,13.47
2018-10-21T12:42:38.284Z,18.01
2018-10-21T12:45:08.404Z,23.38
2018-10-21T12:47:36.295Z,27.16
2018-10-21T12:50:04.289Z,31.13
2018-10-21T12:52:32.077Z,33.48
2018-10-21T12:54:59.859Z,34.39
2018-10-21T12:57:27.551Z,33.67
2018-10-21T12:59:55.251Z,33.20
2018-10-21T13:02:23.619Z,33.43
2018-10-21T13:04:51.315Z,31.67
2018-10-21T13:07:19.052Z,30.10
2018-10-21T13:09:46.819Z,31.37
2018-10-21T13:12:14.549Z,31.65
2018-10-21T13:14:42.173Z,32.36
2018-10-21T13:17:09.863Z,32.26
2018-10-21T13:19:38.233Z,32.23
2018-10-21T13:22:06.136Z,32.52
2018-10-21T13:24:33.931Z,30.30
2018-10-21T13:27:01.701Z,23.99
2018-10-21T13:29:29.563Z,19.47
2018-10-21T13:31:57.248Z,16.64
2018-10-21T13:34:24.975Z,16.91
2018-10-21T13:36:52.669Z,17.67
2018-10-21T13:39:20.389Z,18.51
2018-10-21T13:41:48.243Z,19.57
2018-10-21T13:44:15.968Z,17.53
2018-10-21T13:46:43.814Z,17.80
2018-10-21T13:49:11.510Z,18.38
2018-10-21T13:51:39.293Z,17.76
2018-10-21T13:54:06.930Z,15.62
2018-10-21T13:56:34.687Z,14.80
2018-10-21T13:59:02.369Z,14.89
2018-10-21T14:01:30.094Z,13.69
2018-10-21T14:03:57.775Z,14.29
2018-10-21T14:06:25.479Z,13.44
2018-10-21T14:08:53.210Z,12.69
2018-10-21T14:11:21.086Z,15.13
2018-10-21T14:13:48.927Z,16.80
2018-10-21T14:16:16.716Z,19.63
2018-10-21T14:18:44.543Z,18.66
2018-10-21T14:21:12.224Z,16.52
2018-10-21T14:23:39.941Z,17.63
2018-10-21T14:26:07.622Z,17.69
2018-10-21T14:28:35.409Z,19.23
2018-10-21T14:31:03.399Z,22.50
2018-10-21T14:33:31.348Z,23.02
2018-10-21T14:35:59.027Z,23.25
2018-10-21T14:38:26.812Z,23.14
2018-10-21T14:40:54.544Z,21.87
2018-10-21T14:43:22.488Z,22.55
2018-10-21T14:45:50.326Z,23.08
2018-10-21T14:48:18.136Z,24.28
2018-10-21T14:50:45.790Z,28.37
2018-10-21T14:53:13.673Z,30.58
2018-10-21T14:55:41.595Z,31.69
2018-10-21T14:58:09.530Z,32.36
2018-10-21T15:00:37.630Z,33.74
2018-10-21T15:03:06.673Z,35.21
2018-10-21T15:05:34.377Z,35.81
2018-10-21T15:08:02.457Z,36.98
2018-10-21T15:10:30.125Z,37.29
2018-10-21T15:12:57.845Z,37.01
2018-10-21T15:15:25.807Z,38.31
2018-10-21T15:17:53.533Z,38.07
2018-10-21T15:20:21.236Z,37.94
2018-10-21T15:22:49.037Z,38.91
2018-10-21T15:25:16.716Z,39.62
2018-10-21T15:27:44.547Z,39.14
2018-10-21T15:30:12.572Z,38.95
2018-10-21T15:32:40.623Z,39.54
2018-10-21T15:35:08.741Z,40.23
2018-10-21T15:37:36.427Z,41.29
2018-10-21T15:40:06.026Z,41.82
2018-10-21T15:42:33.780Z,40.42
2018-10-21T15:45:01.564Z,41.17
2018-10-21T15:47:29.305Z,41.87
2018-10-21T15:49:57.113Z,45.14
2018-10-21T15:52:24.861Z,44.34
2018-10-21T15:54:52.719Z,46.58
2018-10-21T15:57:20.454Z,45.50
2018-10-21T15:59:48.227Z,48.79
2018-10-21T16:02:16.175Z,49.72
2018-10-21T16:04:43.861Z,50.12
2018-10-21T16:07:11.531Z,50.41
2018-10-21T16:09:39.184Z,50.92
2018-10-21T16:12:06.939Z,51.53
2018-10-21T16:14:34.620Z,52.13
2018-10-21T16:17:02.340Z,52.01
2018-10-21T16:19:30.163Z,52.48
2018-10-21T16:21:57.952Z,53.29
2018-10-21T16:24:25.676Z,53.27
2018-10-21T16:26:53.486Z,53.42
2018-10-21T16:29:21.235Z,53.86
2018-10-21T16:31:49.315Z,54.28
2018-10-21T16:34:17.081Z,54.06
2018-10-21T16:36:44.728Z,54.58
2018-10-21T16:39:12.433Z,54.57
2018-10-21T16:41:40.184Z,54.98
2018-10-21T16:44:07.920Z,55.80
2018-10-21T16:46:35.663Z,55.65
2018-10-21T16:49:03.434Z,56.41
2018-10-21T16:51:31.216Z,57.45
2018-10-21T16:53:58.972Z,57.56
2018-10-21T16:56:26.757Z,57.30
2018-10-21T16:58:54.489Z,56.70
2018-10-21T17:01:22.225Z,57.23
2018-10-21T17:03:50.045Z,56.88
2018-10-21T17:06:17.741Z,57.71
2018-10-21T17:08:45.545Z,58.59
2018-10-21T17:11:13.547Z,57.17
2018-10-21T17:13:41.335Z,57.71
2018-10-21T17:16:09.132Z,57.63
2018-10-21T17:18:36.859Z,58.45
2018-10-21T17:21:04.948Z,59.32
2018-10-21T17:23:32.753Z,59.63
2018-10-21T17:26:02.274Z,60.27
2018-10-21T17:28:30.004Z,61.11
2018-10-21T17:30:57.868Z,61.26
2018-10-21T17:33:25.530Z,61.63
2018-10-21T17:35:53.257Z,61.90
2018-10-21T17:38:20.982Z,61.81
2018-10-21T17:40:48.662Z,62.60
2018-10-21T17:43:16.422Z,62.29
2018-10-21T17:45:44.169Z,62.32
2018-10-21T17:48:11.877Z,62.59
2018-10-21T17:50:39.659Z,62.67
2018-10-21T17:53:07.357Z,62.28
2018-10-21T17:55:35.061Z,62.63
2018-10-21T17:58:02.879Z,63.04
2018-10-21T18:00:30.787Z,63.21
2018-10-21T18:02:58.658Z,63.23
2018-10-21T18:05:26.375Z,63.82
2018-10-21T18:07:54.210Z,63.39
2018-10-21T18:10:21.976Z,63.91
2018-10-21T18:12:49.654Z,63.95
2018-10-21T18:15:17.397Z,64.13
2018-10-21T18:17:45.152Z,64.64
2018-10-21T18:20:13.407Z,64.39
2018-10-21T18:22:41.564Z,64.51
2018-10-21T18:25:09.796Z,64.79
2018-10-21T18:27:37.825Z,64.62
2018-10-21T18:30:07.299Z,64.61
2018-10-21T18:32:35.212Z,64.86
2018-10-21T18:35:03.392Z,64.72
2018-10-21T18:37:31.276Z,65.27
2018-10-21T18:39:58.994Z,64.81
2018-10-21T18:42:26.808Z,65.73
2018-10-21T18:44:54.556Z,65.23
2018-10-21T18:47:22.491Z,65.76
2018-10-21T18:49:50.683Z,65.95
2018-10-21T18:52:18.579Z,65.51
2018-10-21T18:54:46.276Z,66.30
2018-10-21T18:57:14.144Z,66.59
2018-10-21T18:59:42.063Z,66.13
2018-10-21T19:02:10.421Z,66.60
2018-10-21T19:04:38.407Z,66.77
2018-10-21T19:07:06.948Z,67.12
2018-10-21T19:09:34.857Z,67.23
2018-10-21T19:12:02.882Z,67.31
2018-10-21T19:14:31.766Z,67.44
2018-10-21T19:16:59.722Z,67.29
2018-10-21T19:19:27.672Z,67.63
2018-10-21T19:21:55.732Z,67.20
2018-10-21T19:24:23.570Z,67.13
2018-10-21T19:26:51.472Z,67.19
2018-10-21T19:29:19.416Z,67.25
2018-10-21T19:31:47.318Z,67.04
2018-10-21T19:34:15.138Z,67.39
2018-10-21T19:36:43.884Z,67.59
2018-10-21T19:39:12.766Z,67.35
2018-10-21T19:41:40.800Z,67.77
2018-10-21T19:44:10.592Z,67.54
2018-10-21T19:46:38.826Z,68.31
2018-10-21T19:49:07.399Z,68.46
2018-10-21T19:51:35.352Z,68.10
2018-10-21T19:54:03.166Z,68.98
2018-10-21T19:56:31.822Z,69.01
2018-10-21T19:59:01.309Z,68.86
2018-10-21T20:01:29.096Z,68.84
2018-10-21T20:03:56.976Z,69.32
2018-10-21T20:06:24.773Z,69.41
2018-10-21T20:08:52.590Z,69.45
2018-10-21T20:11:20.438Z,69.77
2018-10-21T20:13:48.234Z,69.20
2018-10-21T20:16:16.333Z,69.10
2018-10-21T20:18:44.143Z,69.74
2018-10-21T20:21:11.872Z,69.96
2018-10-21T20:23:39.602Z,69.51
2018-10-21T20:26:07.452Z,69.43
2018-10-21T20:28:35.520Z,69.77
2018-10-21T20:31:03.475Z,70.14
2018-10-21T20:33:31.369Z,70.31
2018-10-21T20:35:59.286Z,70.38
2018-10-21T20:38:27.326Z,69.69
2018-10-21T20:40:55.062Z,70.42
2018-10-21T20:43:23.646Z,70.42
2018-10-21T20:45:51.640Z,69.76
2018-10-21T20:48:19.269Z,70.22
2018-10-21T20:50:47.012Z,70.22
2018-10-21T20:53:14.784Z,70.63
2018-10-21T20:55:42.646Z,70.59
2018-10-21T20:58:10.316Z,71.04
2018-10-21T21:00:38.095Z,70.46
2018-10-21T21:03:05.980Z,70.38
2018-10-21T21:05:33.658Z,70.56
2018-10-21T21:08:01.554Z,70.87
2018-10-21T21:10:29.323Z,70.36
2018-10-21T21:12:57.112Z,70.93
2018-10-21T21:15:24.770Z,70.71
2018-10-21T21:17:52.489Z,70.65
2018-10-21T21:20:20.205Z,70.93
2018-10-21T21:22:48.002Z,70.71
2018-10-21T21:25:15.665Z,70.51
2018-10-21T21:27:43.412Z,70.82
2018-10-21T21:30:11.158Z,71.05
2018-10-21T21:32:38.869Z,70.36
2018-10-21T21:35:07.271Z,70.94
2018-10-21T21:37:35.018Z,70.81
2018-10-21T21:40:02.850Z,71.15
2018-10-21T21:42:30.593Z,70.73
2018-10-21T21:44:58.251Z,70.86
2018-10-21T21:47:25.959Z,71.18
2018-10-21T21:49:53.803Z,71.12
2018-10-21T21:52:21.480Z,71.59
2018-10-21T21:54:49.300Z,71.24
2018-10-21T21:57:16.988Z,70.87
2018-10-21T21:59:44.655Z,71.02
2018-10-21T22:02:12.326Z,71.55
2018-10-21T22:04:39.975Z,71.49
2018-10-21T22:07:07.752Z,71.03
2018-10-21T22:09:35.432Z,71.23
2018-10-21T22:12:03.203Z,71.29
2018-10-21T22:14:30.926Z,71.40
2018-10-21T22:16:58.541Z,71.56
2018-10-21T22:19:26.216Z,71.27
2018-10-21T22:21:53.958Z,71.10
2018-10-21T22:24:21.669Z,71.28
2018-10-21T22:26:49.364Z,71.25
2018-10-21T22:29:17.141Z,71.44
2018-10-21T22:31:44.863Z,71.30
2018-10-21T22:34:12.666Z,71.32
2018-10-21T22:36:40.284Z,70.92
2018-10-21T22:39:07.978Z,70.58
2018-10-21T22:41:35.772Z,71.01
2018-10-21T22:44:03.615Z,70.46
2018-10-21T22:46:31.280Z,70.69
2018-10-21T22:48:58.927Z,70.98
2018-10-21T22:51:26.594Z,70.79
2018-10-21T22:53:54.467Z,70.72
2018-10-21T22:56:22.158Z,71.19
2018-10-21T22:58:49.968Z,70.96
2018-10-21T23:01:17.616Z,70.43
2018-10-21T23:03:45.262Z,70.50
2018-10-21T23:06:12.930Z,70.33
2018-10-21T23:08:40.518Z,70.55
2018-10-21T23:11:08.209Z,70.24
2018-10-21T23:13:35.899Z,70.40
2018-10-21T23:16:04.156Z,70.65
2018-10-21T23:18:31.904Z,70.79
2018-10-21T23:20:59.774Z,71.45
2018-10-21T23:23:27.510Z,71.62
2018-10-21T23:25:55.173Z,71.39
2018-10-21T23:28:22.807Z,71.19
2018-10-21T23:30:50.578Z,71.55
2018-10-21T23:33:18.269Z,71.01
2018-10-21T23:35:45.979Z,71.16
2018-10-21T23:38:13.642Z,71.25
2018-10-21T23:40:41.356Z,71.30
2018-10-21T23:43:09.001Z,71.34
2018-10-21T23:45:36.585Z,71.55
2018-10-21T23:48:04.482Z,71.91
2018-10-21T23:50:32.146Z,71.36
2018-10-21T23:52:59.783Z,71.37
2018-10-21T23:55:27.519Z,71.41
2018-10-21T23:57:55.185Z,71.93
